首页
METAR-TAF:

METAR-TAF

机场 :

迪奥里·哈马尼国际机场

尼亞美, 尼日尔

纬度: 13-29N, 经度: 002-10E, 海拔: 223米

当前天气观测

该预报发布于21分钟前的11:00 UTC
风速8节,风向东转东南
温度 33°C
湿度 8%
气压 1013 hPa
能见度10公里或以上
1500米以下无云,无积雨云

METAR: DRRN 111100Z 12008KT CAVOK 33/M05 Q1013 NOSIG

时间: 12:21 (11:21 UTC)

预报

该预报发布于6小时和21分钟前的05:00 UTC
预报有效从11日的 06点(UTC)到 12日的 12点(UTC)
风速10节,风向
能見度: 8000
短暂存在
从 11日的 06点(UTC)到 11日的 09点(UTC)
能見度: 3500
浮尘
短暂存在
从 11日的 17点(UTC)到 11日的 21点(UTC)
能見度: 3500
浮尘
短暂存在
从 12日的 06点(UTC)到 12日的 09点(UTC)
能見度: 3500
浮尘

TAF: DRRN 110500Z 1106/1212 08010KT 8000 NSC TEMPO 1106/1109 3500 DU TEMPO 1117/1121 3500 DU TEMPO 1206/1209 3500 DU

超过4000个机场的气象观测和天气预报(METAR&TAF报告)。

可查询的气象台以黄色和红色小点在地图上表示。

将鼠标移到小点上方,可查看气象台名称。

然后点击查看天气观测和预报。

如需切换地图:点击带黑十字的绿色按钮放大地图;点击带横线的绿色按钮缩小地图;或者点击绿色箭头查看邻近地区的地图。


METAR-TAF: